sensor_id;sensor_type;location;lat;lon;timestamp;temperature;humidity
28773;DHT22;15925;51.222;5.678;2023-09-08T00:02:25;19.50;99.90
28773;DHT22;15925;51.222;5.678;2023-09-08T00:04:51;19.50;99.90
28773;DHT22;15925;51.222;5.678;2023-09-08T00:07:17;19.40;99.90
28773;DHT22;15925;51.222;5.678;2023-09-08T00:09:43;19.40;99.90
28773;DHT22;15925;51.222;5.678;2023-09-08T00:12:09;19.40;99.90
28773;DHT22;15925;51.222;5.678;2023-09-08T00:14:35;19.40;99.90
28773;DHT22;15925;51.222;5.678;2023-09-08T00:17:00;19.30;99.90
28773;DHT22;15925;51.222;5.678;2023-09-08T00:19:26;19.30;99.90
28773;DHT22;15925;51.222;5.678;2023-09-08T00:21:52;19.30;99.90
28773;DHT22;15925;51.222;5.678;2023-09-08T00:24:19;19.20;99.90
28773;DHT22;15925;51.222;5.678;2023-09-08T00:26:45;19.20;99.90
28773;DHT22;15925;51.222;5.678;2023-09-08T00:29:11;19.20;99.90
28773;DHT22;15925;51.222;5.678;2023-09-08T00:31:37;19.10;99.90
28773;DHT22;15925;51.222;5.678;2023-09-08T00:34:02;19.10;99.90
28773;DHT22;15925;51.222;5.678;2023-09-08T00:36:28;19.00;99.90
28773;DHT22;15925;51.222;5.678;2023-09-08T00:38:54;19.00;99.90
28773;DHT22;15925;51.222;5.678;2023-09-08T00:41:20;19.00;99.90
28773;DHT22;15925;51.222;5.678;2023-09-08T00:43:47;19.00;99.90
28773;DHT22;15925;51.222;5.678;2023-09-08T00:46:13;18.90;99.90
28773;DHT22;15925;51.222;5.678;2023-09-08T00:48:39;19.00;99.90
28773;DHT22;15925;51.222;5.678;2023-09-08T00:51:05;19.00;99.90
28773;DHT22;15925;51.222;5.678;2023-09-08T00:53:31;19.00;99.90
28773;DHT22;15925;51.222;5.678;2023-09-08T00:55:58;18.90;99.90
28773;DHT22;15925;51.222;5.678;2023-09-08T00:58:24;18.90;99.90
28773;DHT22;15925;51.222;5.678;2023-09-08T01:00:51;18.90;99.90
28773;DHT22;15925;51.222;5.678;2023-09-08T01:03:16;18.80;99.90
28773;DHT22;15925;51.222;5.678;2023-09-08T01:05:43;18.80;99.90
28773;DHT22;15925;51.222;5.678;2023-09-08T01:08:13;18.80;99.90
28773;DHT22;15925;51.222;5.678;2023-09-08T01:10:39;18.80;99.90
28773;DHT22;15925;51.222;5.678;2023-09-08T01:13:08;18.70;99.90
28773;DHT22;15925;51.222;5.678;2023-09-08T01:15:34;18.70;99.90
28773;DHT22;15925;51.222;5.678;2023-09-08T01:18:00;18.70;99.90
28773;DHT22;15925;51.222;5.678;2023-09-08T01:20:48;18.70;99.90
28773;DHT22;15925;51.222;5.678;2023-09-08T01:23:24;18.60;99.90
28773;DHT22;15925;51.222;5.678;2023-09-08T01:26:03;18.60;99.90
28773;DHT22;15925;51.222;5.678;2023-09-08T01:28:31;18.60;99.90
28773;DHT22;15925;51.222;5.678;2023-09-08T01:30:57;18.60;99.90
28773;DHT22;15925;51.222;5.678;2023-09-08T01:33:24;18.60;99.90
28773;DHT22;15925;51.222;5.678;2023-09-08T01:35:51;18.60;99.90
28773;DHT22;15925;51.222;5.678;2023-09-08T01:38:17;18.60;99.90
28773;DHT22;15925;51.222;5.678;2023-09-08T01:40:42;18.60;99.90
28773;DHT22;15925;51.222;5.678;2023-09-08T01:43:08;18.60;99.90
28773;DHT22;15925;51.222;5.678;2023-09-08T01:45:34;18.50;99.90
28773;DHT22;15925;51.222;5.678;2023-09-08T01:48:00;18.50;99.90
28773;DHT22;15925;51.222;5.678;2023-09-08T01:50:26;18.60;99.90
28773;DHT22;15925;51.222;5.678;2023-09-08T01:52:52;18.50;99.90
28773;DHT22;15925;51.222;5.678;2023-09-08T01:55:17;18.50;99.90
28773;DHT22;15925;51.222;5.678;2023-09-08T01:57:43;18.50;99.90
28773;DHT22;15925;51.222;5.678;2023-09-08T02:00:12;18.50;99.90
28773;DHT22;15925;51.222;5.678;2023-09-08T02:02:40;18.40;99.90
28773;DHT22;15925;51.222;5.678;2023-09-08T02:05:07;18.40;99.90
28773;DHT22;15925;51.222;5.678;2023-09-08T02:07:33;18.40;99.90
28773;DHT22;15925;51.222;5.678;2023-09-08T02:09:59;18.40;99.90
28773;DHT22;15925;51.222;5.678;2023-09-08T02:12:25;18.30;99.90
28773;DHT22;15925;51.222;5.678;2023-09-08T02:14:51;18.40;99.90
28773;DHT22;15925;51.222;5.678;2023-09-08T02:17:17;18.30;99.90
28773;DHT22;15925;51.222;5.678;2023-09-08T02:19:44;18.20;99.90
28773;DHT22;15925;51.222;5.678;2023-09-08T02:22:11;18.20;99.90
28773;DHT22;15925;51.222;5.678;2023-09-08T02:24:36;18.20;99.90
28773;DHT22;15925;51.222;5.678;2023-09-08T02:27:02;18.10;99.90
28773;DHT22;15925;51.222;5.678;2023-09-08T02:29:28;18.10;99.90
28773;DHT22;15925;51.222;5.678;2023-09-08T02:31:54;18.10;99.90
28773;DHT22;15925;51.222;5.678;2023-09-08T02:34:20;18.10;99.90
28773;DHT22;15925;51.222;5.678;2023-09-08T02:36:46;18.00;99.90
28773;DHT22;15925;51.222;5.678;2023-09-08T02:39:14;18.10;99.90
28773;DHT22;15925;51.222;5.678;2023-09-08T02:41:40;18.00;99.90
28773;DHT22;15925;51.222;5.678;2023-09-08T02:44:06;18.00;99.90
28773;DHT22;15925;51.222;5.678;2023-09-08T02:46:32;18.00;99.90
28773;DHT22;15925;51.222;5.678;2023-09-08T02:48:58;17.90;99.90
28773;DHT22;15925;51.222;5.678;2023-09-08T02:51:24;17.90;99.90
28773;DHT22;15925;51.222;5.678;2023-09-08T02:53:50;17.90;99.90
28773;DHT22;15925;51.222;5.678;2023-09-08T02:56:15;17.90;99.90
28773;DHT22;15925;51.222;5.678;2023-09-08T02:58:41;17.80;99.90
28773;DHT22;15925;51.222;5.678;2023-09-08T03:01:12;17.80;99.90
28773;DHT22;15925;51.222;5.678;2023-09-08T03:03:39;17.80;99.90
28773;DHT22;15925;51.222;5.678;2023-09-08T03:06:05;17.80;99.90
28773;DHT22;15925;51.222;5.678;2023-09-08T03:08:31;17.80;99.90
28773;DHT22;15925;51.222;5.678;2023-09-08T03:10:58;17.70;99.90
28773;DHT22;15925;51.222;5.678;2023-09-08T03:13:24;17.70;99.90
28773;DHT22;15925;51.222;5.678;2023-09-08T03:15:52;17.70;99.90
28773;DHT22;15925;51.222;5.678;2023-09-08T03:18:18;17.60;99.90
28773;DHT22;15925;51.222;5.678;2023-09-08T03:20:50;17.60;99.90
28773;DHT22;15925;51.222;5.678;2023-09-08T03:23:17;17.60;99.90
28773;DHT22;15925;51.222;5.678;2023-09-08T03:25:43;17.60;99.90
28773;DHT22;15925;51.222;5.678;2023-09-08T03:28:09;17.60;99.90
28773;DHT22;15925;51.222;5.678;2023-09-08T03:30:35;17.50;99.90
28773;DHT22;15925;51.222;5.678;2023-09-08T03:33:01;17.50;99.90
28773;DHT22;15925;51.222;5.678;2023-09-08T03:35:27;17.40;99.90
28773;DHT22;15925;51.222;5.678;2023-09-08T03:37:53;17.40;99.90
28773;DHT22;15925;51.222;5.678;2023-09-08T03:40:18;17.40;99.90
28773;DHT22;15925;51.222;5.678;2023-09-08T03:42:44;17.40;99.90
28773;DHT22;15925;51.222;5.678;2023-09-08T03:45:10;17.40;99.90
28773;DHT22;15925;51.222;5.678;2023-09-08T03:47:36;17.40;99.90
28773;DHT22;15925;51.222;5.678;2023-09-08T03:50:02;17.40;99.90
28773;DHT22;15925;51.222;5.678;2023-09-08T03:52:28;17.40;99.90
28773;DHT22;15925;51.222;5.678;2023-09-08T03:54:54;17.30;99.90
28773;DHT22;15925;51.222;5.678;2023-09-08T03:57:20;17.30;99.90
28773;DHT22;15925;51.222;5.678;2023-09-08T03:59:45;17.30;99.90
28773;DHT22;15925;51.222;5.678;2023-09-08T04:02:11;17.30;99.90
28773;DHT22;15925;51.222;5.678;2023-09-08T04:04:37;17.20;99.90
28773;DHT22;15925;51.222;5.678;2023-09-08T04:07:03;17.30;99.90
28773;DHT22;15925;51.222;5.678;2023-09-08T04:09:29;17.20;99.90
28773;DHT22;15925;51.222;5.678;2023-09-08T04:11:55;17.20;99.90
28773;DHT22;15925;51.222;5.678;2023-09-08T04:14:21;17.20;99.90
28773;DHT22;15925;51.222;5.678;2023-09-08T04:16:49;17.20;99.90
28773;DHT22;15925;51.222;5.678;2023-09-08T04:19:15;17.10;99.90
28773;DHT22;15925;51.222;5.678;2023-09-08T04:21:41;17.20;99.90
28773;DHT22;15925;51.222;5.678;2023-09-08T04:24:07;17.10;99.90
28773;DHT22;15925;51.222;5.678;2023-09-08T04:26:36;17.10;99.90
28773;DHT22;15925;51.222;5.678;2023-09-08T04:29:02;17.10;99.90
28773;DHT22;15925;51.222;5.678;2023-09-08T04:31:28;17.10;99.90
28773;DHT22;15925;51.222;5.678;2023-09-08T04:33:54;17.10;99.90
28773;DHT22;15925;51.222;5.678;2023-09-08T04:36:20;17.10;99.90
28773;DHT22;15925;51.222;5.678;2023-09-08T04:38:46;17.00;99.90
28773;DHT22;15925;51.222;5.678;2023-09-08T04:41:11;17.00;99.90
28773;DHT22;15925;51.222;5.678;2023-09-08T04:43:37;17.00;99.90
28773;DHT22;15925;51.222;5.678;2023-09-08T04:46:03;17.00;99.90
28773;DHT22;15925;51.222;5.678;2023-09-08T04:48:30;17.00;99.90
28773;DHT22;15925;51.222;5.678;2023-09-08T04:50:56;17.00;99.90
28773;DHT22;15925;51.222;5.678;2023-09-08T04:53:23;17.00;99.90
28773;DHT22;15925;51.222;5.678;2023-09-08T04:55:49;17.00;99.90
28773;DHT22;15925;51.222;5.678;2023-09-08T04:58:14;16.90;99.90
28773;DHT22;15925;51.222;5.678;2023-09-08T05:00:41;16.90;99.90
28773;DHT22;15925;51.222;5.678;2023-09-08T05:03:07;16.90;99.90
28773;DHT22;15925;51.222;5.678;2023-09-08T05:05:33;16.90;99.90
28773;DHT22;15925;51.222;5.678;2023-09-08T05:07:59;16.90;99.90
28773;DHT22;15925;51.222;5.678;2023-09-08T05:10:25;16.90;99.90
28773;DHT22;15925;51.222;5.678;2023-09-08T05:12:52;16.80;99.90
28773;DHT22;15925;51.222;5.678;2023-09-08T05:15:19;16.80;99.90
28773;DHT22;15925;51.222;5.678;2023-09-08T05:17:50;16.80;99.90
28773;DHT22;15925;51.222;5.678;2023-09-08T05:20:18;16.80;99.90
28773;DHT22;15925;51.222;5.678;2023-09-08T05:22:44;16.80;99.90
28773;DHT22;15925;51.222;5.678;2023-09-08T05:25:11;16.80;99.90
28773;DHT22;15925;51.222;5.678;2023-09-08T05:27:37;16.80;99.90
28773;DHT22;15925;51.222;5.678;2023-09-08T05:30:04;16.80;99.90
28773;DHT22;15925;51.222;5.678;2023-09-08T05:32:31;16.80;99.90
28773;DHT22;15925;51.222;5.678;2023-09-08T05:34:58;16.80;99.90
28773;DHT22;15925;51.222;5.678;2023-09-08T05:37:24;16.80;99.90
28773;DHT22;15925;51.222;5.678;2023-09-08T05:39:49;16.80;99.90
28773;DHT22;15925;51.222;5.678;2023-09-08T05:42:15;16.80;99.90
28773;DHT22;15925;51.222;5.678;2023-09-08T05:44:41;16.80;99.90
28773;DHT22;15925;51.222;5.678;2023-09-08T05:47:07;16.80;99.90
28773;DHT22;15925;51.222;5.678;2023-09-08T05:49:33;16.80;99.90
28773;DHT22;15925;51.222;5.678;2023-09-08T05:52:02;16.80;99.90
28773;DHT22;15925;51.222;5.678;2023-09-08T05:54:29;16.80;99.90
28773;DHT22;15925;51.222;5.678;2023-09-08T05:56:55;16.80;99.90
28773;DHT22;15925;51.222;5.678;2023-09-08T05:59:21;16.80;99.90
28773;DHT22;15925;51.222;5.678;2023-09-08T06:01:47;16.80;99.90
28773;DHT22;15925;51.222;5.678;2023-09-08T06:04:13;16.80;99.90
28773;DHT22;15925;51.222;5.678;2023-09-08T06:06:39;16.80;99.90
28773;DHT22;15925;51.222;5.678;2023-09-08T06:09:05;16.80;99.90
28773;DHT22;15925;51.222;5.678;2023-09-08T06:11:32;16.80;99.90
28773;DHT22;15925;51.222;5.678;2023-09-08T06:13:58;16.80;99.90
28773;DHT22;15925;51.222;5.678;2023-09-08T06:16:26;16.80;99.90
28773;DHT22;15925;51.222;5.678;2023-09-08T06:18:52;16.90;99.90
28773;DHT22;15925;51.222;5.678;2023-09-08T06:21:19;16.90;99.90
28773;DHT22;15925;51.222;5.678;2023-09-08T06:23:45;17.00;99.90
28773;DHT22;15925;51.222;5.678;2023-09-08T06:26:13;17.00;99.90
28773;DHT22;15925;51.222;5.678;2023-09-08T06:28:39;17.10;99.90
28773;DHT22;15925;51.222;5.678;2023-09-08T06:31:07;17.10;99.90
28773;DHT22;15925;51.222;5.678;2023-09-08T06:33:34;17.20;99.90
28773;DHT22;15925;51.222;5.678;2023-09-08T06:36:00;17.20;99.90
28773;DHT22;15925;51.222;5.678;2023-09-08T06:38:26;17.30;99.90
28773;DHT22;15925;51.222;5.678;2023-09-08T06:40:52;17.30;99.90
28773;DHT22;15925;51.222;5.678;2023-09-08T06:43:19;17.40;99.90
28773;DHT22;15925;51.222;5.678;2023-09-08T06:45:58;17.40;99.90
28773;DHT22;15925;51.222;5.678;2023-09-08T06:48:24;17.50;99.90
28773;DHT22;15925;51.222;5.678;2023-09-08T06:50:53;17.60;99.90
28773;DHT22;15925;51.222;5.678;2023-09-08T06:53:20;17.70;99.90
28773;DHT22;15925;51.222;5.678;2023-09-08T06:55:47;17.80;99.90
28773;DHT22;15925;51.222;5.678;2023-09-08T06:58:13;17.80;99.90
28773;DHT22;15925;51.222;5.678;2023-09-08T07:00:41;17.90;99.90
28773;DHT22;15925;51.222;5.678;2023-09-08T07:03:07;18.00;99.90
28773;DHT22;15925;51.222;5.678;2023-09-08T07:05:39;18.10;99.90
28773;DHT22;15925;51.222;5.678;2023-09-08T07:08:05;18.20;99.90
28773;DHT22;15925;51.222;5.678;2023-09-08T07:10:32;18.30;99.90
28773;DHT22;15925;51.222;5.678;2023-09-08T07:12:58;18.40;99.90
28773;DHT22;15925;51.222;5.678;2023-09-08T07:15:24;18.50;99.90
28773;DHT22;15925;51.222;5.678;2023-09-08T07:17:50;18.60;99.90
28773;DHT22;15925;51.222;5.678;2023-09-08T07:20:16;18.70;99.90
28773;DHT22;15925;51.222;5.678;2023-09-08T07:22:43;18.80;99.90
28773;DHT22;15925;51.222;5.678;2023-09-08T07:25:09;18.90;99.90
28773;DHT22;15925;51.222;5.678;2023-09-08T07:27:35;19.00;99.90
28773;DHT22;15925;51.222;5.678;2023-09-08T07:30:01;19.10;99.90
28773;DHT22;15925;51.222;5.678;2023-09-08T07:32:29;19.20;99.90
28773;DHT22;15925;51.222;5.678;2023-09-08T07:34:54;19.30;99.90
28773;DHT22;15925;51.222;5.678;2023-09-08T07:37:22;19.40;99.90
28773;DHT22;15925;51.222;5.678;2023-09-08T07:39:49;19.60;99.90
28773;DHT22;15925;51.222;5.678;2023-09-08T07:42:15;19.60;99.90
28773;DHT22;15925;51.222;5.678;2023-09-08T07:44:41;19.80;99.90
28773;DHT22;15925;51.222;5.678;2023-09-08T07:47:07;19.90;99.90
28773;DHT22;15925;51.222;5.678;2023-09-08T07:49:33;20.00;99.90
28773;DHT22;15925;51.222;5.678;2023-09-08T07:51:59;20.20;99.90
28773;DHT22;15925;51.222;5.678;2023-09-08T07:54:25;20.40;99.90
28773;DHT22;15925;51.222;5.678;2023-09-08T07:56:51;20.40;99.90
28773;DHT22;15925;51.222;5.678;2023-09-08T07:59:17;20.50;99.90
28773;DHT22;15925;51.222;5.678;2023-09-08T08:01:43;20.60;99.90
28773;DHT22;15925;51.222;5.678;2023-09-08T08:04:09;20.70;99.90
28773;DHT22;15925;51.222;5.678;2023-09-08T08:06:35;20.90;99.90
28773;DHT22;15925;51.222;5.678;2023-09-08T08:09:01;21.00;99.90
28773;DHT22;15925;51.222;5.678;2023-09-08T08:11:26;21.10;99.90
28773;DHT22;15925;51.222;5.678;2023-09-08T08:13:53;21.20;99.90
28773;DHT22;15925;51.222;5.678;2023-09-08T08:16:19;21.30;99.90
28773;DHT22;15925;51.222;5.678;2023-09-08T08:18:47;21.40;99.90
28773;DHT22;15925;51.222;5.678;2023-09-08T08:21:13;21.60;99.90
28773;DHT22;15925;51.222;5.678;2023-09-08T08:23:39;21.70;99.90
28773;DHT22;15925;51.222;5.678;2023-09-08T08:26:05;21.80;99.90
28773;DHT22;15925;51.222;5.678;2023-09-08T08:28:31;21.90;99.90
28773;DHT22;15925;51.222;5.678;2023-09-08T08:30:56;22.10;99.90
28773;DHT22;15925;51.222;5.678;2023-09-08T08:33:23;22.20;99.90
28773;DHT22;15925;51.222;5.678;2023-09-08T08:35:52;22.30;99.90
28773;DHT22;15925;51.222;5.678;2023-09-08T08:38:18;22.40;99.90
28773;DHT22;15925;51.222;5.678;2023-09-08T08:40:44;22.50;99.90
28773;DHT22;15925;51.222;5.678;2023-09-08T08:43:10;22.60;99.90
28773;DHT22;15925;51.222;5.678;2023-09-08T08:45:41;22.70;99.90
28773;DHT22;15925;51.222;5.678;2023-09-08T08:48:08;22.80;99.90
28773;DHT22;15925;51.222;5.678;2023-09-08T08:50:35;23.00;99.90
28773;DHT22;15925;51.222;5.678;2023-09-08T08:53:01;23.10;99.90
28773;DHT22;15925;51.222;5.678;2023-09-08T08:55:29;23.20;99.90
28773;DHT22;15925;51.222;5.678;2023-09-08T08:58:03;23.40;99.90
28773;DHT22;15925;51.222;5.678;2023-09-08T09:00:29;23.50;99.90
28773;DHT22;15925;51.222;5.678;2023-09-08T09:02:55;23.60;99.90
28773;DHT22;15925;51.222;5.678;2023-09-08T09:05:24;23.80;99.90
28773;DHT22;15925;51.222;5.678;2023-09-08T09:07:50;23.90;99.90
28773;DHT22;15925;51.222;5.678;2023-09-08T09:10:16;24.00;99.90
28773;DHT22;15925;51.222;5.678;2023-09-08T09:12:42;24.10;99.90
28773;DHT22;15925;51.222;5.678;2023-09-08T09:15:09;24.20;99.90
28773;DHT22;15925;51.222;5.678;2023-09-08T09:17:35;24.20;99.90
28773;DHT22;15925;51.222;5.678;2023-09-08T09:20:20;24.40;99.90
28773;DHT22;15925;51.222;5.678;2023-09-08T09:22:46;24.50;99.90
28773;DHT22;15925;51.222;5.678;2023-09-08T09:25:27;24.60;99.90
28773;DHT22;15925;51.222;5.678;2023-09-08T09:27:54;24.80;99.90
28773;DHT22;15925;51.222;5.678;2023-09-08T09:30:21;24.80;99.90
28773;DHT22;15925;51.222;5.678;2023-09-08T09:32:48;25.00;99.90
28773;DHT22;15925;51.222;5.678;2023-09-08T09:35:16;25.00;99.90
28773;DHT22;15925;51.222;5.678;2023-09-08T09:37:42;25.10;99.90
28773;DHT22;15925;51.222;5.678;2023-09-08T09:40:09;25.20;99.90
28773;DHT22;15925;51.222;5.678;2023-09-08T09:42:39;25.30;99.90
28773;DHT22;15925;51.222;5.678;2023-09-08T09:45:08;25.40;99.90
28773;DHT22;15925;51.222;5.678;2023-09-08T09:47:34;25.40;99.90
28773;DHT22;15925;51.222;5.678;2023-09-08T09:50:00;25.50;99.90
28773;DHT22;15925;51.222;5.678;2023-09-08T09:52:26;25.60;99.90
28773;DHT22;15925;51.222;5.678;2023-09-08T09:54:56;25.80;99.90
28773;DHT22;15925;51.222;5.678;2023-09-08T09:57:23;25.80;99.90
28773;DHT22;15925;51.222;5.678;2023-09-08T09:59:49;25.90;99.90
28773;DHT22;15925;51.222;5.678;2023-09-08T10:02:17;26.00;99.90
28773;DHT22;15925;51.222;5.678;2023-09-08T10:04:48;26.10;99.90
28773;DHT22;15925;51.222;5.678;2023-09-08T10:07:15;26.20;99.90
28773;DHT22;15925;51.222;5.678;2023-09-08T10:09:41;26.30;99.90
28773;DHT22;15925;51.222;5.678;2023-09-08T10:12:09;26.40;99.90
28773;DHT22;15925;51.222;5.678;2023-09-08T10:14:41;26.50;99.90
28773;DHT22;15925;51.222;5.678;2023-09-08T10:17:12;26.70;99.90
28773;DHT22;15925;51.222;5.678;2023-09-08T10:19:40;26.70;99.90
28773;DHT22;15925;51.222;5.678;2023-09-08T10:22:11;26.70;99.90
28773;DHT22;15925;51.222;5.678;2023-09-08T10:24:39;26.90;99.90
28773;DHT22;15925;51.222;5.678;2023-09-08T10:27:10;27.00;99.90
28773;DHT22;15925;51.222;5.678;2023-09-08T10:29:37;27.00;99.90
28773;DHT22;15925;51.222;5.678;2023-09-08T10:32:04;27.10;99.90
28773;DHT22;15925;51.222;5.678;2023-09-08T10:34:32;27.30;99.90
28773;DHT22;15925;51.222;5.678;2023-09-08T10:36:58;27.30;99.90
28773;DHT22;15925;51.222;5.678;2023-09-08T10:39:28;27.30;99.90
28773;DHT22;15925;51.222;5.678;2023-09-08T10:47:14;27.60;99.90
28773;DHT22;15925;51.222;5.678;2023-09-08T10:49:40;27.70;99.90
28773;DHT22;15925;51.222;5.678;2023-09-08T10:52:09;27.70;99.90
28773;DHT22;15925;51.222;5.678;2023-09-08T10:54:47;27.70;99.90
28773;DHT22;15925;51.222;5.678;2023-09-08T10:57:14;27.90;99.90
28773;DHT22;15925;51.222;5.678;2023-09-08T10:59:45;27.90;99.90
28773;DHT22;15925;51.222;5.678;2023-09-08T11:02:31;28.00;99.90
28773;DHT22;15925;51.222;5.678;2023-09-08T11:04:57;28.10;99.90
28773;DHT22;15925;51.222;5.678;2023-09-08T11:07:26;28.20;99.90
28773;DHT22;15925;51.222;5.678;2023-09-08T11:09:52;28.30;99.90
28773;DHT22;15925;51.222;5.678;2023-09-08T11:12:18;28.30;99.90
28773;DHT22;15925;51.222;5.678;2023-09-08T11:14:43;28.30;99.90
28773;DHT22;15925;51.222;5.678;2023-09-08T11:17:09;28.40;99.90
28773;DHT22;15925;51.222;5.678;2023-09-08T11:19:46;28.40;99.90
28773;DHT22;15925;51.222;5.678;2023-09-08T11:22:16;28.50;99.90
28773;DHT22;15925;51.222;5.678;2023-09-08T11:24:42;28.70;99.90
28773;DHT22;15925;51.222;5.678;2023-09-08T11:27:09;28.70;99.90
28773;DHT22;15925;51.222;5.678;2023-09-08T11:29:35;28.80;99.90
28773;DHT22;15925;51.222;5.678;2023-09-08T11:32:02;28.90;99.90
28773;DHT22;15925;51.222;5.678;2023-09-08T11:34:29;28.90;99.90
28773;DHT22;15925;51.222;5.678;2023-09-08T11:36:56;28.90;99.90
28773;DHT22;15925;51.222;5.678;2023-09-08T11:39:25;29.00;99.90
28773;DHT22;15925;51.222;5.678;2023-09-08T11:41:52;29.00;99.90
28773;DHT22;15925;51.222;5.678;2023-09-08T11:44:18;29.10;99.90
28773;DHT22;15925;51.222;5.678;2023-09-08T11:46:45;29.10;99.90
28773;DHT22;15925;51.222;5.678;2023-09-08T11:49:12;29.20;99.90
28773;DHT22;15925;51.222;5.678;2023-09-08T11:51:38;29.30;99.90
28773;DHT22;15925;51.222;5.678;2023-09-08T11:54:04;29.30;99.90
28773;DHT22;15925;51.222;5.678;2023-09-08T11:56:30;29.40;99.90
28773;DHT22;15925;51.222;5.678;2023-09-08T11:58:57;29.50;99.90
28773;DHT22;15925;51.222;5.678;2023-09-08T12:01:23;29.60;99.90
28773;DHT22;15925;51.222;5.678;2023-09-08T12:03:55;29.60;99.90
28773;DHT22;15925;51.222;5.678;2023-09-08T12:06:30;29.60;99.90
28773;DHT22;15925;51.222;5.678;2023-09-08T12:08:59;29.60;99.90
28773;DHT22;15925;51.222;5.678;2023-09-08T12:11:34;29.60;99.90
28773;DHT22;15925;51.222;5.678;2023-09-08T12:14:01;29.70;99.90
28773;DHT22;15925;51.222;5.678;2023-09-08T12:16:27;29.80;99.90
28773;DHT22;15925;51.222;5.678;2023-09-08T12:18:53;29.90;99.90
28773;DHT22;15925;51.222;5.678;2023-09-08T12:21:20;29.90;99.90
28773;DHT22;15925;51.222;5.678;2023-09-08T12:23:50;29.90;99.90
28773;DHT22;15925;51.222;5.678;2023-09-08T12:26:17;29.90;99.90
28773;DHT22;15925;51.222;5.678;2023-09-08T12:28:43;30.00;99.90
28773;DHT22;15925;51.222;5.678;2023-09-08T12:31:10;30.00;99.90
28773;DHT22;15925;51.222;5.678;2023-09-08T12:33:36;30.00;99.90
28773;DHT22;15925;51.222;5.678;2023-09-08T12:36:18;30.00;99.90
28773;DHT22;15925;51.222;5.678;2023-09-08T12:38:51;30.10;99.90
28773;DHT22;15925;51.222;5.678;2023-09-08T12:41:17;30.10;99.90
28773;DHT22;15925;51.222;5.678;2023-09-08T12:43:44;30.10;99.90
28773;DHT22;15925;51.222;5.678;2023-09-08T12:46:10;30.10;99.90
28773;DHT22;15925;51.222;5.678;2023-09-08T12:48:35;30.10;99.90
28773;DHT22;15925;51.222;5.678;2023-09-08T12:51:01;30.20;99.90
28773;DHT22;15925;51.222;5.678;2023-09-08T12:53:33;30.20;99.90
28773;DHT22;15925;51.222;5.678;2023-09-08T12:55:58;30.30;99.90
28773;DHT22;15925;51.222;5.678;2023-09-08T12:58:24;30.30;99.90
28773;DHT22;15925;51.222;5.678;2023-09-08T13:00:50;30.40;99.90
28773;DHT22;15925;51.222;5.678;2023-09-08T13:03:16;30.40;99.90
28773;DHT22;15925;51.222;5.678;2023-09-08T13:05:42;30.40;99.90
28773;DHT22;15925;51.222;5.678;2023-09-08T13:08:07;30.40;99.90
28773;DHT22;15925;51.222;5.678;2023-09-08T13:10:33;30.50;99.90
28773;DHT22;15925;51.222;5.678;2023-09-08T13:12:59;30.50;99.90
28773;DHT22;15925;51.222;5.678;2023-09-08T13:15:25;30.50;99.90
28773;DHT22;15925;51.222;5.678;2023-09-08T13:17:51;30.50;99.90
28773;DHT22;15925;51.222;5.678;2023-09-08T13:20:17;30.50;99.90
28773;DHT22;15925;51.222;5.678;2023-09-08T13:22:43;30.50;99.90
28773;DHT22;15925;51.222;5.678;2023-09-08T13:25:09;30.50;99.90
28773;DHT22;15925;51.222;5.678;2023-09-08T13:27:35;30.60;99.90
28773;DHT22;15925;51.222;5.678;2023-09-08T13:30:12;30.60;99.90
28773;DHT22;15925;51.222;5.678;2023-09-08T13:32:38;30.70;99.90
28773;DHT22;15925;51.222;5.678;2023-09-08T13:35:04;30.70;99.90
28773;DHT22;15925;51.222;5.678;2023-09-08T13:37:30;30.60;99.90
28773;DHT22;15925;51.222;5.678;2023-09-08T13:39:57;30.70;99.90
28773;DHT22;15925;51.222;5.678;2023-09-08T13:42:22;30.60;99.90
28773;DHT22;15925;51.222;5.678;2023-09-08T13:44:48;30.70;99.90
28773;DHT22;15925;51.222;5.678;2023-09-08T13:47:14;30.70;99.90
28773;DHT22;15925;51.222;5.678;2023-09-08T13:49:40;30.70;99.90
28773;DHT22;15925;51.222;5.678;2023-09-08T13:52:06;30.70;99.90
28773;DHT22;15925;51.222;5.678;2023-09-08T13:54:32;30.70;99.90
28773;DHT22;15925;51.222;5.678;2023-09-08T13:57:03;30.80;99.90
28773;DHT22;15925;51.222;5.678;2023-09-08T13:59:30;30.80;99.90
28773;DHT22;15925;51.222;5.678;2023-09-08T14:01:56;30.90;99.90
28773;DHT22;15925;51.222;5.678;2023-09-08T14:04:27;30.90;99.90
28773;DHT22;15925;51.222;5.678;2023-09-08T14:06:53;30.90;99.90
28773;DHT22;15925;51.222;5.678;2023-09-08T14:09:19;30.90;99.90
28773;DHT22;15925;51.222;5.678;2023-09-08T14:11:45;30.90;99.90
28773;DHT22;15925;51.222;5.678;2023-09-08T14:14:11;30.90;99.90
28773;DHT22;15925;51.222;5.678;2023-09-08T14:16:36;30.90;99.90
28773;DHT22;15925;51.222;5.678;2023-09-08T14:19:02;30.90;99.90
28773;DHT22;15925;51.222;5.678;2023-09-08T14:21:28;30.90;99.90
28773;DHT22;15925;51.222;5.678;2023-09-08T14:23:55;30.90;99.90
28773;DHT22;15925;51.222;5.678;2023-09-08T14:26:20;30.90;99.90
28773;DHT22;15925;51.222;5.678;2023-09-08T14:28:46;30.90;99.90
28773;DHT22;15925;51.222;5.678;2023-09-08T14:31:13;30.90;99.90
28773;DHT22;15925;51.222;5.678;2023-09-08T14:33:39;31.00;99.90
28773;DHT22;15925;51.222;5.678;2023-09-08T14:36:05;30.90;99.90
28773;DHT22;15925;51.222;5.678;2023-09-08T14:38:31;31.00;99.90
28773;DHT22;15925;51.222;5.678;2023-09-08T14:40:58;31.00;99.90
28773;DHT22;15925;51.222;5.678;2023-09-08T14:43:26;31.10;99.90
28773;DHT22;15925;51.222;5.678;2023-09-08T14:45:53;31.10;99.90
28773;DHT22;15925;51.222;5.678;2023-09-08T14:48:19;31.10;99.90
28773;DHT22;15925;51.222;5.678;2023-09-08T14:50:45;31.00;99.90
28773;DHT22;15925;51.222;5.678;2023-09-08T14:53:11;31.00;99.90
28773;DHT22;15925;51.222;5.678;2023-09-08T14:55:37;30.90;99.90
28773;DHT22;15925;51.222;5.678;2023-09-08T14:58:03;31.00;99.90
28773;DHT22;15925;51.222;5.678;2023-09-08T15:00:29;31.00;99.90
28773;DHT22;15925;51.222;5.678;2023-09-08T15:02:54;31.00;99.90
28773;DHT22;15925;51.222;5.678;2023-09-08T15:05:20;31.10;99.90
28773;DHT22;15925;51.222;5.678;2023-09-08T15:07:46;31.10;99.90
28773;DHT22;15925;51.222;5.678;2023-09-08T15:10:12;31.10;99.90
28773;DHT22;15925;51.222;5.678;2023-09-08T15:12:38;31.20;99.90
28773;DHT22;15925;51.222;5.678;2023-09-08T15:15:04;31.10;99.90
28773;DHT22;15925;51.222;5.678;2023-09-08T15:17:30;31.20;99.90
28773;DHT22;15925;51.222;5.678;2023-09-08T15:19:56;31.10;99.90
28773;DHT22;15925;51.222;5.678;2023-09-08T15:22:22;31.20;99.90
28773;DHT22;15925;51.222;5.678;2023-09-08T15:24:49;31.10;99.90
28773;DHT22;15925;51.222;5.678;2023-09-08T15:27:15;31.20;99.90
28773;DHT22;15925;51.222;5.678;2023-09-08T15:29:41;31.20;99.90
28773;DHT22;15925;51.222;5.678;2023-09-08T15:32:07;31.10;99.90
28773;DHT22;15925;51.222;5.678;2023-09-08T15:34:34;31.10;99.90